Time;durP1;ratioP1;P1;durP2;ratioP2;P2;SDS_P1;SDS_P2;PMS_P1;PMS_P2;Temp;Humidity;BMP_temperature;BMP_pressure;BME280_temperature;BME280_humidity;BME280_pressure;Samples;Min_cycle;Max_cycle;Signal;HPM_P1;HPM_P2
2022/05/11 00:00:14;;;;;;;20.77;9.90;;;;;;;14.71;71.46;93007.56;4964200;28;20443;-79
2022/05/11 00:02:40;;;;;;;18.45;10.23;;;;;;;14.70;70.99;93008.66;4980184;28;20045;-78
2022/05/11 00:05:08;;;;;;;18.42;10.10;;;;;;;14.73;71.17;93009.91;5005057;28;20480;-78
2022/05/11 00:07:34;;;;;;;20.20;10.30;;;;;;;14.73;70.90;93000.13;4999506;28;20077;-78
2022/05/11 00:10:00;;;;;;;23.67;10.80;;;;;;;14.69;70.76;93001.81;4997715;28;20034;-78
2022/05/11 00:12:26;;;;;;;23.10;10.48;;;;;;;14.73;71.39;93008.03;5016906;28;20575;-78
2022/05/11 00:14:53;;;;;;;21.92;9.85;;;;;;;14.72;71.53;93014.38;4999622;28;20050;-78
2022/05/11 00:17:18;;;;;;;17.83;9.93;;;;;;;14.68;71.79;93004.72;4993300;28;20136;-78
2022/05/11 00:19:44;;;;;;;16.55;9.77;;;;;;;14.67;71.98;93006.59;4976330;28;20538;-78
2022/05/11 00:22:10;;;;;;;20.67;9.27;;;;;;;14.67;71.64;93000.56;5017111;28;20492;-78
2022/05/11 00:24:36;;;;;;;20.40;10.13;;;;;;;14.66;71.59;93009.50;5023856;28;20045;-78
2022/05/11 00:27:02;;;;;;;19.55;9.73;;;;;;;14.65;71.92;93003.47;5036781;28;20065;-78
2022/05/11 00:29:30;;;;;;;20.05;10.48;;;;;;;14.65;72.06;93003.47;5010090;28;20034;-79
2022/05/11 00:31:56;;;;;;;19.90;9.88;;;;;;;14.62;72.10;93003.31;5014455;28;20129;-79
2022/05/11 00:34:23;;;;;;;22.60;10.40;;;;;;;14.58;72.70;93003.88;4998675;28;20036;-78
2022/05/11 00:36:48;;;;;;;23.58;10.48;;;;;;;14.57;72.55;93001.56;5016504;28;20080;-78
2022/05/11 00:39:14;;;;;;;19.35;10.13;;;;;;;14.51;72.64;92995.59;5015942;28;20045;-79
2022/05/11 00:41:41;;;;;;;19.90;9.50;;;;;;;14.50;72.28;92994.03;4995353;28;20037;-80
2022/05/11 00:44:09;;;;;;;19.38;10.50;;;;;;;14.50;72.73;92990.59;4996875;28;20093;-79
2022/05/11 00:46:57;;;;;;;20.63;10.13;;;;;;;14.45;72.80;92998.63;4994654;28;20038;-78
2022/05/11 00:49:54;;;;;;;22.23;10.43;;;;;;;14.43;72.96;93000.78;4977498;28;20033;-79
2022/05/11 00:52:28;;;;;;;23.58;11.07;;;;;;;14.36;73.27;92996.72;4994838;28;20049;-78
2022/05/11 00:55:04;;;;;;;17.85;10.30;;;;;;;14.32;73.21;92993.13;5012886;28;20370;-78
2022/05/11 00:57:36;;;;;;;16.58;10.05;;;;;;;14.29;73.22;92995.56;5000202;28;20034;-78
2022/05/11 01:00:05;;;;;;;17.13;10.45;;;;;;;14.27;73.02;92992.44;4977251;28;20492;-78
2022/05/11 01:02:31;;;;;;;22.17;11.02;;;;;;;14.21;73.00;92988.34;4997017;28;20054;-78
2022/05/11 01:05:01;;;;;;;21.75;10.27;;;;;;;14.21;73.12;92988.34;4997361;28;20209;-79
2022/05/11 01:07:28;;;;;;;20.48;10.43;;;;;;;14.15;73.65;92985.81;5006365;28;20046;-79
2022/05/11 01:09:54;;;;;;;18.35;10.30;;;;;;;14.15;73.49;92982.41;5015548;28;20590;-78
2022/05/11 01:12:25;;;;;;;21.92;10.55;;;;;;;14.07;73.53;92985.75;4985809;28;20055;-79
2022/05/11 01:14:54;;;;;;;20.38;10.88;;;;;;;14.07;73.66;92983.09;4996339;28;20359;-79
2022/05/11 01:17:24;;;;;;;18.23;10.65;;;;;;;14.01;73.85;92973.78;5005418;28;20101;-79
2022/05/11 01:19:50;;;;;;;23.55;11.32;;;;;;;14.00;73.84;92977.47;4969983;28;20453;-78
2022/05/11 01:22:21;;;;;;;21.77;11.57;;;;;;;13.95;73.94;92976.50;4995606;28;20106;-80
2022/05/11 01:24:48;;;;;;;20.10;10.70;;;;;;;13.92;73.91;92979.72;4975275;28;20061;-77
2022/05/11 01:27:28;;;;;;;19.98;11.32;;;;;;;13.91;74.24;92978.16;4960639;28;20527;-79
2022/05/11 01:29:58;;;;;;;22.02;10.98;;;;;;;13.87;74.26;92974.56;4977342;28;20037;-79
2022/05/11 01:32:25;;;;;;;20.75;10.88;;;;;;;13.85;74.17;92973.31;5001302;28;20211;-79
2022/05/11 01:34:57;;;;;;;21.85;11.10;;;;;;;13.82;74.46;92979.91;4996139;28;20109;-78
2022/05/11 01:37:23;;;;;;;22.25;11.52;;;;;;;13.77;74.80;92982.66;4978433;28;20038;-78
2022/05/11 01:39:49;;;;;;;23.58;10.98;;;;;;;13.75;74.88;92971.63;4995666;28;20038;-78
2022/05/11 01:42:15;;;;;;;23.60;10.93;;;;;;;13.73;74.88;92982.47;4977779;28;20124;-78
2022/05/11 01:44:41;;;;;;;19.30;11.40;;;;;;;13.73;74.68;92981.66;5003707;28;20527;-78
2022/05/11 01:47:07;;;;;;;23.95;11.38;;;;;;;13.68;74.85;92971.25;5012440;28;20044;-78
2022/05/11 01:49:33;;;;;;;19.50;11.55;;;;;;;13.69;74.81;92975.44;4995053;28;20121;-78
2022/05/11 01:51:58;;;;;;;21.23;11.07;;;;;;;13.66;75.04;92978.66;5011132;28;20168;-78
2022/05/11 01:54:25;;;;;;;18.58;11.27;;;;;;;13.65;75.33;92977.13;4995000;28;20076;-78
2022/05/11 01:56:51;;;;;;;20.38;10.60;;;;;;;13.62;75.25;92972.41;4998332;28;20235;-79
2022/05/11 01:59:16;;;;;;;20.48;11.10;;;;;;;13.62;75.41;92967.16;5015175;28;20395;-78
2022/05/11 02:01:43;;;;;;;22.20;11.57;;;;;;;13.59;75.22;92965.13;4996759;28;20045;-78
2022/05/11 02:09:41;;;;;;;21.73;11.32;;;;;;;13.52;75.83;92963.66;4964257;28;20046;-79
2022/05/11 02:12:11;;;;;;;20.58;10.80;;;;;;;13.47;75.98;92958.50;4978185;28;20030;-79
2022/05/11 02:14:37;;;;;;;21.25;10.82;;;;;;;13.48;75.54;92967.94;4997271;28;20077;-78
2022/05/11 02:17:03;;;;;;;24.20;12.02;;;;;;;13.47;76.06;92961.13;4995278;28;20089;-78
2022/05/11 02:19:29;;;;;;;25.15;11.05;;;;;;;13.44;76.07;92956.47;4995356;28;20030;-78
2022/05/11 02:21:56;;;;;;;20.33;10.65;;;;;;;13.40;76.03;92959.97;4995452;28;20789;-81
2022/05/11 02:24:22;;;;;;;23.58;11.20;;;;;;;13.40;77.01;92959.97;4999442;28;20042;-80
2022/05/11 02:26:48;;;;;;;19.30;10.93;;;;;;;13.33;76.84;92955.09;5033050;28;20070;-80
2022/05/11 02:29:14;;;;;;;19.42;10.82;;;;;;;13.33;76.70;92957.72;4981117;28;20400;-79
2022/05/11 02:31:39;;;;;;;26.08;11.93;;;;;;;13.32;76.92;92961.41;4996353;28;20061;-79
2022/05/11 02:34:06;;;;;;;24.10;11.30;;;;;;;13.30;76.45;92960.91;4995747;28;20030;-78
2022/05/11 02:36:34;;;;;;;17.85;10.60;;;;;;;13.27;77.01;92956.22;4977924;28;20077;-79
2022/05/11 02:39:01;;;;;;;20.45;10.77;;;;;;;13.25;76.85;92958.34;4993886;28;20117;-79
2022/05/11 02:41:26;;;;;;;18.75;11.00;;;;;;;13.25;76.86;92964.38;5008420;28;20440;-79
2022/05/11 02:43:52;;;;;;;25.17;11.50;;;;;;;13.22;76.62;92959.72;4996952;28;20072;-79
2022/05/11 02:46:17;;;;;;;20.80;10.63;;;;;;;13.24;76.69;92962.03;4995103;28;20042;-79
2022/05/11 02:48:43;;;;;;;22.15;11.52;;;;;;;13.21;76.93;92967.88;4996370;28;20036;-79
2022/05/11 02:51:09;;;;;;;22.00;11.60;;;;;;;13.19;77.39;92975.28;4995728;28;20038;-79
2022/05/11 02:53:35;;;;;;;25.83;11.80;;;;;;;13.15;77.32;92967.22;4991235;28;20042;-78
2022/05/11 02:56:01;;;;;;;19.60;11.05;;;;;;;13.16;77.11;92973.25;5002559;28;20122;-78
2022/05/11 02:58:32;;;;;;;24.23;11.27;;;;;;;13.17;77.34;92977.41;5014272;28;20029;-79
2022/05/11 03:00:59;;;;;;;19.23;11.07;;;;;;;13.14;77.21;92984.03;4999201;28;20037;-80
2022/05/11 03:03:25;;;;;;;25.10;11.95;;;;;;;13.09;77.43;92977.00;4996010;28;20457;-78
2022/05/11 03:05:54;;;;;;;18.98;11.73;;;;;;;13.10;77.33;92978.59;5011890;28;20034;-79
2022/05/11 03:08:20;;;;;;;24.63;11.98;;;;;;;13.06;77.23;92974.97;4981174;28;20134;-79
2022/05/11 03:10:48;;;;;;;21.63;11.07;;;;;;;13.09;77.54;92979.66;4979968;28;20121;-79
2022/05/11 03:13:14;;;;;;;29.60;11.48;;;;;;;13.04;78.10;92974.47;4999849;28;20064;-79
2022/05/11 03:15:40;;;;;;;19.98;10.63;;;;;;;13.04;78.35;92985.00;5018393;28;20042;-78
2022/05/11 03:18:05;;;;;;;22.33;12.13;;;;;;;13.00;78.35;92985.88;4990744;28;20069;-78
2022/05/11 03:20:31;;;;;;;22.60;11.45;;;;;;;12.96;78.43;92972.50;4998037;28;20039;-78
2022/05/11 03:22:57;;;;;;;24.92;11.20;;;;;;;12.98;78.31;92980.88;4997795;28;20090;-78
2022/05/11 03:25:23;;;;;;;18.50;10.77;;;;;;;12.96;78.46;92982.25;4996220;28;20568;-78
2022/05/11 03:27:50;;;;;;;25.52;10.57;;;;;;;12.93;78.97;92978.34;4980177;28;20423;-78
2022/05/11 03:30:16;;;;;;;23.75;11.45;;;;;;;12.91;78.74;92976.00;4997179;28;20495;-80
2022/05/11 03:35:26;;;;;;;22.45;10.73;;;;;;;12.88;78.73;92976.59;4999914;28;20034;-78
2022/05/11 03:37:52;;;;;;;21.60;10.70;;;;;;;12.90;78.50;92984.16;5014138;28;20033;-78
2022/05/11 03:40:18;;;;;;;21.92;11.15;;;;;;;12.85;78.67;92979.00;5017470;28;20034;-79
2022/05/11 03:42:43;;;;;;;23.63;11.52;;;;;;;12.92;79.10;92987.28;4997670;28;20089;-78
2022/05/11 03:45:14;;;;;;;19.83;10.88;;;;;;;12.91;79.17;92983.09;4993334;28;20030;-80
2022/05/11 03:47:40;;;;;;;24.33;11.20;;;;;;;12.88;78.87;92987.09;4996628;28;20384;-80
2022/05/11 03:50:07;;;;;;;24.13;11.55;;;;;;;12.87;79.18;92990.00;4995004;28;20042;-80
2022/05/11 03:52:33;;;;;;;21.73;11.13;;;;;;;12.80;79.29;92982.50;4995231;28;20026;-79
2022/05/11 03:55:00;;;;;;;19.38;11.10;;;;;;;12.80;79.42;92990.38;4964875;28;20416;-80
2022/05/11 03:57:25;;;;;;;20.60;11.50;;;;;;;12.77;79.65;92984.94;4998364;28;20041;-79
2022/05/11 03:59:51;;;;;;;25.35;11.07;;;;;;;12.71;79.85;92987.59;5014196;28;20022;-80
2022/05/11 04:02:17;;;;;;;25.17;11.85;;;;;;;12.75;79.89;92992.31;4998215;28;20037;-79
2022/05/11 04:04:43;;;;;;;21.45;11.48;;;;;;;12.71;80.03;92987.59;5000341;28;20089;-79
2022/05/11 04:07:08;;;;;;;21.85;11.75;;;;;;;12.73;80.41;92989.19;5017760;28;20022;-78
2022/05/11 04:09:34;;;;;;;23.48;11.35;;;;;;;12.70;80.72;92993.94;5004691;28;20042;-79
2022/05/11 04:12:00;;;;;;;25.27;12.55;;;;;;;12.66;81.12;92985.06;4997263;28;20066;-79
2022/05/11 04:14:25;;;;;;;38.08;15.40;;;;;;;12.70;81.16;92991.31;4964125;28;20030;-79
2022/05/11 04:16:58;;;;;;;27.38;14.23;;;;;;;12.73;81.00;92992.59;5005784;28;20496;-79
2022/05/11 04:19:25;;;;;;;25.30;13.70;;;;;;;12.73;81.19;92997.84;4994419;28;20035;-79
2022/05/11 04:21:50;;;;;;;25.50;13.48;;;;;;;12.74;81.18;92995.97;4980603;28;20034;-78
2022/05/11 04:24:16;;;;;;;24.55;12.00;;;;;;;12.74;81.37;93004.63;4997572;28;20582;-78
2022/05/11 04:26:42;;;;;;;24.80;12.48;;;;;;;12.77;81.34;92995.44;4989199;28;20033;-79
2022/05/11 04:29:07;;;;;;;23.35;12.65;;;;;;;12.80;81.14;93002.72;5011157;28;20038;-81
2022/05/11 04:31:33;;;;;;;30.13;13.10;;;;;;;12.81;81.25;92997.19;4993219;28;20076;-79
2022/05/11 04:33:58;;;;;;;25.90;12.23;;;;;;;12.84;80.61;92995.84;5015105;28;20037;-79
2022/05/11 04:36:24;;;;;;;24.48;12.30;;;;;;;12.88;80.94;93000.22;4997400;28;20034;-80
2022/05/11 04:38:50;;;;;;;20.17;12.50;;;;;;;12.93;80.90;93004.63;5010872;28;20318;-80
2022/05/11 04:41:16;;;;;;;27.15;11.77;;;;;;;12.95;80.77;92999.88;5013520;28;20117;-79
2022/05/11 04:43:42;;;;;;;23.52;12.57;;;;;;;13.02;80.87;93008.16;4998961;28;20379;-81
2022/05/11 04:46:08;;;;;;;28.55;13.95;;;;;;;13.03;81.20;93006.28;4999270;28;20042;-81
2022/05/11 04:48:34;;;;;;;26.45;13.73;;;;;;;13.15;80.62;93006.63;4998940;28;20034;-81
2022/05/11 04:51:01;;;;;;;24.75;12.15;;;;;;;13.23;79.93;93007.81;4987632;28;20045;-81
2022/05/11 04:53:28;;;;;;;28.75;11.07;;;;;;;13.30;79.89;93013.50;5013720;28;20040;-82
2022/05/11 04:55:53;;;;;;;23.83;11.57;;;;;;;13.40;79.35;93017.81;4988893;28;20092;-77
2022/05/11 04:58:19;;;;;;;22.75;10.98;;;;;;;13.47;79.01;93012.94;4976118;28;20046;-81
2022/05/11 05:00:45;;;;;;;22.02;11.07;;;;;;;13.59;79.03;93020.34;4980917;28;20142;-80
2022/05/11 05:03:13;;;;;;;24.33;11.73;;;;;;;13.66;79.15;93013.63;4991118;28;20068;-81
2022/05/11 05:05:40;;;;;;;28.65;12.65;;;;;;;13.80;78.48;93024.16;5016852;28;20471;-82
2022/05/11 05:08:07;;;;;;;35.42;12.35;;;;;;;13.87;78.28;93027.19;4999544;28;20030;-81
2022/05/11 05:10:33;;;;;;;27.58;12.30;;;;;;;13.99;78.22;93029.34;5016915;28;20026;-81
2022/05/11 05:13:08;;;;;;;29.15;12.50;;;;;;;14.14;77.50;93034.31;5012211;28;20053;-81
2022/05/11 05:15:36;;;;;;;25.90;11.80;;;;;;;14.21;77.22;93033.91;5004355;28;20033;-81
2022/05/11 05:18:03;;;;;;;23.67;11.80;;;;;;;14.38;76.93;93031.41;5009823;28;20022;-81
2022/05/11 05:20:30;;;;;;;25.98;13.25;;;;;;;14.50;76.71;93035.38;5000955;28;20125;-80
2022/05/11 05:22:56;;;;;;;29.70;13.25;;;;;;;14.60;76.70;93032.56;4977172;28;20041;-81
2022/05/11 05:25:22;;;;;;;30.55;13.32;;;;;;;14.72;76.19;93043.34;4982378;28;20062;-81
2022/05/11 05:27:52;;;;;;;32.83;13.57;;;;;;;14.81;75.56;93038.16;4993566;28;20039;-82
2022/05/11 05:33:03;;;;;;;23.52;12.35;;;;;;;15.05;75.09;93042.38;4990789;28;20416;-81
2022/05/11 05:35:29;;;;;;;25.70;13.10;;;;;;;15.14;74.61;93044.00;5021733;28;20498;-78
2022/05/11 05:37:54;;;;;;;26.27;12.60;;;;;;;15.29;74.46;93052.59;4983460;28;20038;-80
2022/05/11 05:40:21;;;;;;;24.40;12.10;;;;;;;15.41;74.41;93056.25;4990641;28;20052;-80
2022/05/11 05:42:48;;;;;;;27.98;12.32;;;;;;;15.50;74.08;93052.91;4991056;28;20048;-82
2022/05/11 05:45:14;;;;;;;28.52;13.30;;;;;;;15.67;73.89;93063.56;5007831;28;20046;-81
2022/05/11 05:47:40;;;;;;;26.30;13.23;;;;;;;15.86;73.35;93065.97;5024833;28;20047;-81
2022/05/11 05:50:07;;;;;;;28.77;13.18;;;;;;;16.06;72.16;93069.94;5013839;28;20504;-81
2022/05/11 05:52:33;;;;;;;32.97;13.18;;;;;;;16.25;71.42;93069.69;5007397;28;20046;-81
2022/05/11 05:54:58;;;;;;;24.48;12.85;;;;;;;16.52;68.99;93071.31;5003759;28;20034;-82
2022/05/11 05:57:26;;;;;;;24.90;12.65;;;;;;;16.83;66.54;93073.88;5019044;28;20084;-81
2022/05/11 05:59:52;;;;;;;32.65;12.60;;;;;;;17.40;64.70;93067.59;5021150;28;20042;-82
2022/05/11 06:02:17;;;;;;;25.50;12.10;;;;;;;18.25;60.77;93077.50;5018175;28;20042;-81
2022/05/11 06:04:46;;;;;;;28.08;12.85;;;;;;;18.55;60.05;93072.19;4986203;28;20046;-82
2022/05/11 06:07:12;;;;;;;24.50;11.60;;;;;;;19.00;58.29;93073.50;5003989;28;20119;-80
2022/05/11 06:09:39;;;;;;;30.08;13.38;;;;;;;19.31;56.72;93076.50;4998742;28;20496;-81
2022/05/11 06:12:06;;;;;;;26.77;12.50;;;;;;;19.57;56.24;93083.47;5015014;28;20053;-82
2022/05/11 06:14:32;;;;;;;32.05;12.95;;;;;;;19.86;56.59;93084.44;4969736;28;20041;-82
2022/05/11 06:16:59;;;;;;;36.28;14.25;;;;;;;20.07;56.28;93085.16;5002289;28;20424;-83
2022/05/11 06:19:26;;;;;;;27.85;14.18;;;;;;;20.55;55.15;93088.94;4985331;28;20114;-81
2022/05/11 06:21:52;;;;;;;29.20;14.35;;;;;;;20.58;54.41;93090.22;5009757;28;20038;-83
2022/05/11 06:24:18;;;;;;;34.33;13.07;;;;;;;20.84;55.35;93089.81;5012143;28;20062;-83
2022/05/11 06:26:44;;;;;;;23.55;12.40;;;;;;;21.12;52.86;93084.56;5001107;28;20101;-84
2022/05/11 06:29:10;;;;;;;23.80;12.05;;;;;;;20.95;52.76;93092.81;5004269;28;20673;-81
2022/05/11 06:31:36;;;;;;;44.83;13.60;;;;;;;21.13;53.40;93093.31;4983737;28;20041;-80
2022/05/11 06:34:01;;;;;;;23.05;12.60;;;;;;;21.31;51.17;93096.50;5019614;28;20030;-79
2022/05/11 06:36:27;;;;;;;32.80;12.32;;;;;;;21.02;52.78;93098.34;5018167;28;20518;-81
2022/05/11 06:38:53;;;;;;;31.02;13.48;;;;;;;21.33;51.70;93100.34;5000731;28;20562;-81
2022/05/11 06:41:23;;;;;;;44.90;13.63;;;;;;;20.95;51.39;93093.56;5001186;28;20036;-84
2022/05/11 06:43:51;;;;;;;23.98;12.10;;;;;;;20.88;49.63;93096.03;5022649;28;20034;-79
2022/05/11 06:46:19;;;;;;;21.75;11.93;;;;;;;20.71;51.94;93102.34;5006194;28;20109;-81
2022/05/11 06:48:48;;;;;;;36.47;11.60;;;;;;;20.56;53.25;93101.16;5021099;28;20120;-79
2022/05/11 06:51:15;;;;;;;25.95;14.35;;;;;;;20.27;51.98;93104.78;5022362;28;20073;-80
2022/05/11 06:59:20;;;;;;;31.80;14.00;;;;;;;20.01;52.46;93110.38;5009317;28;20582;-82
2022/05/11 07:01:49;;;;;;;38.05;14.50;;;;;;;20.10;53.73;93102.31;5022728;28;20052;-79
2022/05/11 07:04:15;;;;;;;35.10;14.02;;;;;;;19.96;54.05;93110.59;5041054;28;20029;-83
2022/05/11 07:06:41;;;;;;;39.13;15.10;;;;;;;19.69;53.24;93112.75;5011770;28;20039;-81
2022/05/11 07:09:07;;;;;;;31.15;14.13;;;;;;;20.07;55.58;93108.31;5012542;28;20184;-80
2022/05/11 07:14:17;;;;;;;34.78;15.88;;;;;;;20.07;53.81;93111.75;5020633;28;20038;-80
2022/05/11 07:16:43;;;;;;;32.78;13.93;;;;;;;20.14;54.93;93106.66;5018738;28;20530;-80
2022/05/11 07:19:09;;;;;;;29.27;14.27;;;;;;;20.12;55.97;93108.84;5020628;28;20103;-80
2022/05/11 07:21:35;;;;;;;32.17;14.57;;;;;;;20.14;56.62;93103.22;5003378;28;20084;-80
2022/05/11 07:24:01;;;;;;;41.40;16.00;;;;;;;20.17;55.45;93111.31;5019830;28;20121;-79
2022/05/11 07:26:26;;;;;;;37.60;15.57;;;;;;;20.04;56.55;93120.38;5003023;28;20042;-81
2022/05/11 07:28:52;;;;;;;36.20;15.77;;;;;;;20.14;57.46;93111.19;5004767;28;20038;-80
2022/05/11 07:31:17;;;;;;;31.65;15.88;;;;;;;20.37;53.18;93114.97;4999718;28;20038;-80
2022/05/11 07:33:44;;;;;;;39.70;15.95;;;;;;;20.36;55.39;93118.75;5000949;28;20039;-80
2022/05/11 07:36:10;;;;;;;35.15;15.45;;;;;;;20.15;54.86;93126.81;4984164;28;20046;-80
2022/05/11 07:38:39;;;;;;;47.95;17.13;;;;;;;19.99;53.61;93122.44;4989478;28;20026;-80
2022/05/11 07:41:05;;;;;;;31.52;14.35;;;;;;;20.13;54.16;93126.38;5002050;28;20035;-81
2022/05/11 07:43:32;;;;;;;34.45;16.58;;;;;;;20.03;55.79;93129.44;5001083;28;20491;-81
2022/05/11 07:45:58;;;;;;;40.97;18.55;;;;;;;19.99;54.04;93131.19;5001441;28;20034;-80
2022/05/11 07:48:23;;;;;;;34.75;16.48;;;;;;;20.10;56.46;93126.25;5001869;28;20026;-80
2022/05/11 07:50:49;;;;;;;38.03;15.50;;;;;;;20.17;56.08;93121.94;5020010;28;20037;-79
2022/05/11 07:53:16;;;;;;;41.60;16.08;;;;;;;20.12;56.35;93124.03;5019807;28;20041;-80
2022/05/11 07:55:42;;;;;;;40.28;16.75;;;;;;;20.04;55.86;93119.56;5002724;28;20463;-79
2022/05/11 08:00:58;;;;;;;40.70;16.02;;;;;;;20.12;54.78;93129.34;5001395;28;20046;-79
2022/05/11 08:03:24;;;;;;;46.05;17.92;;;;;;;20.09;56.23;93120.16;5001069;28;20030;-81
2022/05/11 08:05:50;;;;;;;34.60;16.75;;;;;;;20.24;55.14;93124.06;5001247;28;20066;-81
2022/05/11 08:08:16;;;;;;;37.58;17.65;;;;;;;20.24;56.29;93120.63;5000476;28;20542;-78
2022/05/11 08:10:45;;;;;;;35.30;17.35;;;;;;;20.30;56.03;93127.28;4982916;28;20031;-82
2022/05/11 08:13:12;;;;;;;36.83;16.60;;;;;;;20.39;57.48;93138.56;5000738;28;20050;-80
2022/05/11 08:15:43;;;;;;;36.30;17.55;;;;;;;20.17;55.97;93137.91;5000498;28;20026;-77
2022/05/11 08:18:08;;;;;;;28.58;15.18;;;;;;;20.25;55.60;93138.13;4998948;28;20038;-80
2022/05/11 08:20:38;;;;;;;35.85;14.55;;;;;;;20.06;56.41;93131.47;4982143;28;20400;-79
2022/05/11 08:23:04;;;;;;;40.50;16.88;;;;;;;20.01;56.47;93131.66;4981276;28;20034;-79
2022/05/11 08:25:35;;;;;;;40.40;16.75;;;;;;;20.11;57.74;93133.91;4998723;28;20061;-80
2022/05/11 08:28:01;;;;;;;44.35;16.80;;;;;;;20.43;53.74;93126.19;4997614;28;20026;-79
2022/05/11 08:33:26;;;;;;;32.35;16.20;;;;;;;20.30;54.84;93124.63;5000715;28;20037;-80
2022/05/11 08:35:56;;;;;;;37.70;17.08;;;;;;;20.40;55.54;93126.84;4982176;28;20058;-80
2022/05/11 08:38:25;;;;;;;32.65;15.98;;;;;;;20.31;58.09;93134.94;4999196;28;20120;-79
2022/05/11 08:41:02;;;;;;;42.53;15.52;;;;;;;20.54;52.28;93121.97;4982165;28;20073;-79
2022/05/11 08:43:31;;;;;;;39.67;17.55;;;;;;;20.21;55.34;93140.66;4995210;28;20148;-79
2022/05/11 08:46:20;;;;;;;44.92;16.00;;;;;;;20.56;55.45;93133.09;5002283;28;20515;-80
2022/05/11 08:49:00;;;;;;;33.90;15.15;;;;;;;20.70;57.84;93137.28;4984868;28;20046;-79
2022/05/11 08:51:31;;;;;;;33.75;16.17;;;;;;;20.66;56.12;93139.84;5001177;28;20160;-79
2022/05/11 08:54:20;;;;;;;38.97;17.02;;;;;;;20.68;56.01;93139.50;4998006;28;20042;-81
2022/05/11 08:56:48;;;;;;;30.58;13.68;;;;;;;20.48;56.20;93130.50;4998091;28;20044;-80
2022/05/11 08:59:21;;;;;;;36.85;17.02;;;;;;;20.27;56.22;93141.22;5004981;28;20168;-81
2022/05/11 09:01:51;;;;;;;32.38;15.98;;;;;;;20.30;56.16;93125.38;5038255;28;20037;-81
2022/05/11 09:04:22;;;;;;;39.67;16.40;;;;;;;20.65;55.28;93132.97;5014766;28;20038;-81
2022/05/11 09:06:48;;;;;;;51.22;16.88;;;;;;;20.46;55.35;93138.81;5018910;28;20045;-81
2022/05/11 09:09:16;;;;;;;31.17;14.10;;;;;;;20.67;53.84;93136.09;5018990;28;20049;-80
2022/05/11 09:11:54;;;;;;;36.47;15.38;;;;;;;20.97;50.33;93133.16;5001311;28;20065;-81
2022/05/11 09:14:31;;;;;;;35.13;15.88;;;;;;;20.94;52.25;93136.47;5001243;28;20065;-80
2022/05/11 09:16:57;;;;;;;30.35;14.65;;;;;;;20.73;51.72;93136.63;4999983;28;20490;-80
2022/05/11 09:19:32;;;;;;;31.08;15.93;;;;;;;20.81;53.74;93133.06;4984756;28;20034;-81
2022/05/11 09:22:06;;;;;;;36.13;13.00;;;;;;;21.05;56.16;93136.81;5017390;28;20121;-80
2022/05/11 09:24:37;;;;;;;40.13;14.32;;;;;;;20.91;51.69;93129.94;5015783;28;20424;-79
2022/05/11 09:27:10;;;;;;;36.00;14.77;;;;;;;20.97;52.20;93136.59;4985479;28;20042;-81
2022/05/11 09:29:44;;;;;;;25.95;13.43;;;;;;;20.93;53.89;93134.94;4998723;28;20030;-80
2022/05/11 09:32:25;;;;;;;34.05;15.02;;;;;;;20.83;54.63;93138.84;4998061;28;20034;-80
2022/05/11 09:34:51;;;;;;;44.55;15.98;;;;;;;20.92;52.77;93136.06;4998203;28;20400;-79
2022/05/11 09:37:45;;;;;;;29.63;12.95;;;;;;;20.84;51.49;93135.06;5008773;28;20034;-80
2022/05/11 09:40:17;;;;;;;38.17;15.57;;;;;;;21.08;52.79;93130.84;5017696;28;20363;-80
2022/05/11 09:42:52;;;;;;;37.22;16.27;;;;;;;21.05;50.92;93136.81;5000156;28;20534;-79
2022/05/11 09:45:49;;;;;;;51.75;14.90;;;;;;;21.12;53.39;93148.47;4999442;28;20070;-79
2022/05/11 09:48:21;;;;;;;34.45;14.93;;;;;;;21.07;52.34;93126.59;4999418;28;20565;-81
2022/05/11 09:50:56;;;;;;;32.95;15.05;;;;;;;21.25;50.98;93129.78;5017239;28;20038;-77
2022/05/11 09:53:30;;;;;;;24.30;11.52;;;;;;;21.37;51.91;93133.19;5016470;28;20033;-79
2022/05/11 09:55:56;;;;;;;27.90;12.82;;;;;;;21.56;51.57;93131.81;4982244;28;20049;-78
2022/05/11 09:58:30;;;;;;;28.90;12.75;;;;;;;21.50;51.44;93127.84;4987735;28;20465;-79
2022/05/11 10:01:13;;;;;;;37.38;14.88;;;;;;;21.42;50.42;93130.31;4979095;28;20129;-79
2022/05/11 10:03:53;;;;;;;29.40;14.10;;;;;;;21.62;50.91;93127.81;4996578;28;20023;-80
2022/05/11 10:06:20;;;;;;;25.88;13.55;;;;;;;21.73;49.90;93122.75;4979665;28;20062;-79
2022/05/11 10:08:48;;;;;;;34.58;14.88;;;;;;;21.68;48.22;93131.00;5007072;28;20030;-80
2022/05/11 10:11:25;;;;;;;29.50;13.35;;;;;;;21.75;49.88;93133.84;4998773;28;20026;-79
2022/05/11 10:22:45;;;;;;;26.52;13.00;;;;;;;21.65;50.14;93121.03;4996684;28;20046;-79
2022/05/11 10:25:44;;;;;;;30.77;12.35;;;;;;;21.70;49.58;93126.09;4979479;28;20172;-80
2022/05/11 10:28:29;;;;;;;33.15;15.05;;;;;;;21.86;50.18;93118.16;4962967;28;20456;-80
2022/05/11 10:31:07;;;;;;;23.63;11.77;;;;;;;21.96;48.93;93115.75;4998187;28;20084;-80
2022/05/11 10:34:16;;;;;;;33.47;14.10;;;;;;;21.96;49.35;93120.31;5016850;28;20156;-80
2022/05/11 10:37:16;;;;;;;25.65;13.45;;;;;;;22.18;49.65;93119.00;4967526;28;20050;-80
2022/05/11 10:40:09;;;;;;;27.88;13.00;;;;;;;22.23;48.97;93121.41;5012642;28;20036;-80
2022/05/11 10:42:55;;;;;;;29.08;15.90;;;;;;;22.34;49.39;93108.34;5015961;28;20041;-80
2022/05/11 10:45:26;;;;;;;25.83;14.25;;;;;;;22.26;49.44;93106.63;5016749;28;20128;-79
2022/05/11 10:48:14;;;;;;;32.50;16.97;;;;;;;22.01;48.76;93118.16;4999103;28;20036;-81
2022/05/11 10:51:21;;;;;;;34.88;16.10;;;;;;;22.28;48.71;93105.16;4999159;28;20058;-80
2022/05/11 10:53:50;;;;;;;34.72;14.55;;;;;;;22.04;49.66;93112.19;4978925;28;20111;-78
2022/05/11 10:56:57;;;;;;;28.30;14.68;;;;;;;21.64;50.35;93106.94;4979303;28;20384;-79
2022/05/11 10:59:48;;;;;;;31.75;14.70;;;;;;;21.51;50.88;93100.13;4967895;28;20055;-79
2022/05/11 11:02:35;;;;;;;34.38;14.32;;;;;;;21.75;49.81;93094.69;4996435;28;20487;-78
2022/05/11 11:05:17;;;;;;;27.30;13.13;;;;;;;21.36;51.20;93099.69;5016167;28;20030;-79
2022/05/11 11:08:20;;;;;;;28.05;13.98;;;;;;;21.86;49.67;93096.81;5016011;28;20038;-81
2022/05/11 11:11:06;;;;;;;29.08;12.45;;;;;;;21.55;49.78;93096.44;5015698;28;20261;-81
2022/05/11 11:13:43;;;;;;;29.17;14.60;;;;;;;21.40;49.91;93095.25;4997096;28;20038;-80
2022/05/11 11:16:13;;;;;;;26.40;13.18;;;;;;;21.22;50.70;93085.97;4996101;28;20030;-80
2022/05/11 11:18:44;;;;;;;35.67;14.77;;;;;;;20.98;51.57;93074.28;4996692;28;20034;-78
2022/05/11 11:21:11;;;;;;;30.75;15.20;;;;;;;20.75;52.08;93089.94;4997058;28;20482;-81
2022/05/11 11:23:40;;;;;;;37.58;12.85;;;;;;;20.75;52.69;93075.88;4980242;28;20072;-81
2022/05/11 11:26:27;;;;;;;31.65;14.70;;;;;;;20.63;52.85;93078.56;4996035;28;20070;-81
2022/05/11 11:28:55;;;;;;;34.13;16.55;;;;;;;20.76;53.18;93072.88;4998196;28;20088;-80
2022/05/11 11:31:28;;;;;;;36.50;16.33;;;;;;;20.45;53.35;93078.75;5000075;28;20044;-80
2022/05/11 11:33:54;;;;;;;35.58;16.40;;;;;;;20.93;53.65;93071.84;4982800;28;20036;-80
2022/05/11 11:36:28;;;;;;;36.80;15.43;;;;;;;21.51;53.83;93073.47;5002996;28;20085;-81
2022/05/11 11:38:58;;;;;;;21.40;10.35;;;;;;;21.77;52.71;93068.47;5019022;28;20495;-80
2022/05/11 11:41:33;;;;;;;38.75;16.23;;;;;;;21.94;51.79;93070.03;5019308;28;20095;-80
2022/05/11 11:44:01;;;;;;;35.10;17.65;;;;;;;22.10;51.12;93070.03;5017763;28;20581;-79
2022/05/11 11:46:45;;;;;;;29.38;14.88;;;;;;;22.28;49.96;93069.72;5001782;28;20515;-79
2022/05/11 11:49:21;;;;;;;29.83;14.70;;;;;;;22.43;50.15;93052.94;5018512;28;20030;-79
2022/05/11 11:51:58;;;;;;;33.78;17.27;;;;;;;22.34;50.97;93071.78;5001420;28;20044;-80
2022/05/11 11:54:29;;;;;;;28.52;15.90;;;;;;;22.31;48.90;93050.34;4973857;28;20038;-79
2022/05/11 11:56:58;;;;;;;27.20;16.48;;;;;;;22.21;50.72;93059.63;4982567;28;20042;-80
2022/05/11 11:59:24;;;;;;;46.78;18.02;;;;;;;22.28;48.95;93051.06;4981927;28;20041;-80
2022/05/11 12:01:54;;;;;;;44.85;18.10;;;;;;;22.42;49.65;93052.16;4997953;28;20038;-79